Time;durP1;ratioP1;P1;durP2;ratioP2;P2;SDS_P1;SDS_P2;PMS_P1;PMS_P2;Temp;Humidity;BMP_temperature;BMP_pressure;BME280_temperature;BME280_humidity;BME280_pressure;Samples;Min_cycle;Max_cycle;Signal;HPM_P1;HPM_P2
2021/05/28 00:02:13;;;;;;;4.00;2.63;;;;;;;;;;5035002;28;20036;-59
2021/05/28 00:04:41;;;;;;;4.40;2.95;;;;;;;;;;5051344;28;20025;-59
2021/05/28 00:07:08;;;;;;;5.63;3.50;;;;;;;;;;5035139;28;20025;-59
2021/05/28 00:09:34;;;;;;;4.32;3.92;;;;;;;;;;5053574;28;20029;-59
2021/05/28 00:12:00;;;;;;;5.28;4.05;;;;;;;;;;5057455;28;20036;-59
2021/05/28 00:14:26;;;;;;;5.75;4.35;;;;;;;;;;5056766;28;20025;-59
2021/05/28 00:16:52;;;;;;;4.63;4.10;;;;;;;;;;5071896;28;20022;-59
2021/05/28 00:19:18;;;;;;;5.20;4.43;;;;;;;;;;5056710;28;20467;-59
2021/05/28 00:21:45;;;;;;;5.10;4.28;;;;;;;;;;5039687;28;20021;-59
2021/05/28 00:24:11;;;;;;;5.00;4.50;;;;;;;;;;5056573;28;20036;-59
2021/05/28 00:26:37;;;;;;;5.15;4.72;;;;;;;;;;5056606;28;20079;-59
2021/05/28 00:29:03;;;;;;;6.88;5.43;;;;;;;;;;5038111;28;20495;-59
2021/05/28 00:31:30;;;;;;;6.95;5.72;;;;;;;;;;5055133;28;20064;-59
2021/05/28 00:33:56;;;;;;;6.35;5.18;;;;;;;;;;5039297;28;20151;-59
2021/05/28 00:36:24;;;;;;;6.60;5.90;;;;;;;;;;5056325;28;20048;-59
2021/05/28 00:38:51;;;;;;;7.03;6.32;;;;;;;;;;5056341;28;20084;-58
2021/05/28 00:41:17;;;;;;;9.43;7.82;;;;;;;;;;5038211;28;20028;-58
2021/05/28 00:43:43;;;;;;;8.85;7.63;;;;;;;;;;5038309;28;20455;-59
2021/05/28 00:46:09;;;;;;;10.10;7.55;;;;;;;;;;5038269;28;20356;-59
2021/05/28 00:48:35;;;;;;;10.18;7.82;;;;;;;;;;5037684;28;20053;-59
2021/05/28 00:51:04;;;;;;;8.60;7.40;;;;;;;;;;5037826;28;20035;-58
2021/05/28 00:53:49;;;;;;;7.72;6.93;;;;;;;;;;5056587;28;20025;-59
2021/05/28 00:56:16;;;;;;;9.05;7.38;;;;;;;;;;5055951;28;20375;-59
2021/05/28 00:58:45;;;;;;;7.78;6.97;;;;;;;;;;5056669;28;20037;-59
2021/05/28 01:01:17;;;;;;;8.07;7.32;;;;;;;;;;5054190;28;20029;-59
2021/05/28 01:03:43;;;;;;;8.73;7.60;;;;;;;;;;5038595;28;20025;-59
2021/05/28 01:06:10;;;;;;;8.50;7.57;;;;;;;;;;5037977;28;20017;-59
2021/05/28 01:08:38;;;;;;;8.82;7.22;;;;;;;;;;5037846;28;20041;-59
2021/05/28 01:11:04;;;;;;;8.70;6.65;;;;;;;;;;5055487;28;20490;-59
2021/05/28 01:13:30;;;;;;;7.82;7.03;;;;;;;;;;5037936;28;20162;-59
2021/05/28 01:15:56;;;;;;;8.10;6.85;;;;;;;;;;5037372;28;20147;-59
2021/05/28 01:18:25;;;;;;;8.05;6.45;;;;;;;;;;5070723;28;20486;-59
2021/05/28 01:20:51;;;;;;;7.35;6.18;;;;;;;;;;5055351;28;20037;-59
2021/05/28 01:23:23;;;;;;;6.90;6.20;;;;;;;;;;5055720;28;20025;-59
2021/05/28 01:25:55;;;;;;;8.48;6.65;;;;;;;;;;5055390;28;20451;-59
2021/05/28 01:28:23;;;;;;;7.47;6.63;;;;;;;;;;5055234;28;20037;-59
2021/05/28 01:30:52;;;;;;;11.38;7.05;;;;;;;;;;5055296;28;20025;-60
2021/05/28 01:33:22;;;;;;;7.28;6.07;;;;;;;;;;5055909;28;20025;-59
2021/05/28 01:35:48;;;;;;;7.50;6.00;;;;;;;;;;5037626;28;20021;-58
2021/05/28 01:38:17;;;;;;;6.70;5.25;;;;;;;;;;5053535;28;20036;-59
2021/05/28 01:40:43;;;;;;;6.68;5.10;;;;;;;;;;5070717;28;20029;-59
2021/05/28 01:43:09;;;;;;;6.38;5.03;;;;;;;;;;5055613;28;20473;-59
2021/05/28 01:45:38;;;;;;;7.15;5.07;;;;;;;;;;5037091;28;20115;-59
2021/05/28 01:48:04;;;;;;;6.05;4.97;;;;;;;;;;5054525;28;20475;-59
2021/05/28 01:50:42;;;;;;;7.25;5.10;;;;;;;;;;5036780;28;20029;-59
2021/05/28 01:53:08;;;;;;;6.32;4.47;;;;;;;;;;5055471;28;20073;-59
2021/05/28 01:55:35;;;;;;;5.13;4.13;;;;;;;;;;5055688;28;20021;-59
2021/05/28 01:58:04;;;;;;;9.43;4.13;;;;;;;;;;5054788;28;20422;-59
2021/05/28 02:00:30;;;;;;;6.43;4.07;;;;;;;;;;5037667;28;20117;-59
2021/05/28 02:02:59;;;;;;;5.72;4.13;;;;;;;;;;5071034;28;20419;-59
2021/05/28 02:05:25;;;;;;;6.43;3.85;;;;;;;;;;5036695;28;20074;-58
2021/05/28 02:07:51;;;;;;;5.03;3.80;;;;;;;;;;5036311;28;20037;-58
2021/05/28 02:10:18;;;;;;;4.40;3.20;;;;;;;;;;5054591;28;20036;-59
2021/05/28 02:12:52;;;;;;;7.30;3.85;;;;;;;;;;5054987;28;20025;-59
2021/05/28 02:15:20;;;;;;;4.53;3.70;;;;;;;;;;5054799;28;20455;-59
2021/05/28 02:17:47;;;;;;;5.30;4.00;;;;;;;;;;5036276;28;20029;-59
2021/05/28 02:20:13;;;;;;;5.53;4.28;;;;;;;;;;5036402;28;20044;-59
2021/05/28 02:22:47;;;;;;;5.22;3.28;;;;;;;;;;5037309;28;20102;-59
2021/05/28 02:25:13;;;;;;;4.68;4.05;;;;;;;;;;5036484;28;20387;-59
2021/05/28 02:27:39;;;;;;;5.13;3.80;;;;;;;;;;5035870;28;20033;-59
2021/05/28 02:30:06;;;;;;;5.47;3.97;;;;;;;;;;5054109;28;20032;-59
2021/05/28 02:32:39;;;;;;;4.47;3.42;;;;;;;;;;5068986;28;20067;-59
2021/05/28 02:35:06;;;;;;;5.65;3.72;;;;;;;;;;5036355;28;20056;-59
2021/05/28 02:37:35;;;;;;;4.70;4.20;;;;;;;;;;5052651;28;20021;-59
2021/05/28 02:40:04;;;;;;;4.80;3.55;;;;;;;;;;5054047;28;20032;-59
2021/05/28 02:42:33;;;;;;;4.68;3.65;;;;;;;;;;5052346;28;20035;-60
2021/05/28 02:45:00;;;;;;;5.40;4.22;;;;;;;;;;5053976;28;20071;-59
2021/05/28 02:47:29;;;;;;;4.53;3.63;;;;;;;;;;5036000;28;20048;-59
2021/05/28 02:49:56;;;;;;;5.17;3.50;;;;;;;;;;5035692;28;20426;-59
2021/05/28 02:52:22;;;;;;;5.90;4.25;;;;;;;;;;5054254;28;20027;-58
2021/05/28 02:54:48;;;;;;;7.05;3.50;;;;;;;;;;5035622;28;20116;-59
2021/05/28 02:57:19;;;;;;;4.60;3.75;;;;;;;;;;5035749;28;20475;-59
2021/05/28 02:59:45;;;;;;;6.30;3.35;;;;;;;;;;5053871;28;20382;-59
2021/05/28 03:02:18;;;;;;;6.05;3.83;;;;;;;;;;5036780;28;20032;-59
2021/05/28 03:04:47;;;;;;;5.13;4.10;;;;;;;;;;5036683;28;20049;-59
2021/05/28 03:07:13;;;;;;;4.28;3.55;;;;;;;;;;5053623;28;20107;-59
2021/05/28 03:09:40;;;;;;;5.28;4.13;;;;;;;;;;5035423;28;20033;-59
2021/05/28 03:12:06;;;;;;;4.95;4.25;;;;;;;;;;5053591;28;20064;-59
2021/05/28 03:14:33;;;;;;;4.97;4.45;;;;;;;;;;5035682;28;20550;-59
2021/05/28 03:17:02;;;;;;;6.32;4.88;;;;;;;;;;5035376;28;20032;-59
2021/05/28 03:19:49;;;;;;;9.35;4.63;;;;;;;;;;5051495;28;20036;-58
2021/05/28 03:22:33;;;;;;;4.90;3.97;;;;;;;;;;5052693;28;20419;-59
2021/05/28 03:25:04;;;;;;;3.95;2.83;;;;;;;;;;5035443;28;20031;-59
2021/05/28 03:27:30;;;;;;;4.75;3.90;;;;;;;;;;5053426;28;20051;-59
2021/05/28 03:30:04;;;;;;;4.55;2.90;;;;;;;;;;5035368;28;20547;-58
2021/05/28 03:32:30;;;;;;;3.97;3.40;;;;;;;;;;5053843;28;20025;-58
2021/05/28 03:35:02;;;;;;;7.25;3.42;;;;;;;;;;5035751;28;20039;-59
2021/05/28 03:37:29;;;;;;;4.07;3.15;;;;;;;;;;5054039;28;20116;-59
2021/05/28 03:39:55;;;;;;;3.75;3.08;;;;;;;;;;5035188;28;20029;-58
2021/05/28 03:42:23;;;;;;;5.53;2.88;;;;;;;;;;5036382;28;20347;-59
2021/05/28 03:44:49;;;;;;;5.03;3.38;;;;;;;;;;5053713;28;20082;-59
2021/05/28 03:47:20;;;;;;;5.88;3.58;;;;;;;;;;5039029;28;20060;-59
2021/05/28 03:49:48;;;;;;;5.40;4.10;;;;;;;;;;5057818;28;20036;-59
2021/05/28 03:52:14;;;;;;;3.88;3.05;;;;;;;;;;5039954;28;20070;-59
2021/05/28 03:54:46;;;;;;;3.97;3.17;;;;;;;;;;5055514;28;20029;-59
2021/05/28 03:57:13;;;;;;;3.88;3.47;;;;;;;;;;5057105;28;20020;-59
2021/05/28 03:59:39;;;;;;;3.40;2.85;;;;;;;;;;5039022;28;20032;-59
2021/05/28 04:02:06;;;;;;;3.92;3.40;;;;;;;;;;5039429;28;20336;-59
2021/05/28 04:04:35;;;;;;;4.82;3.35;;;;;;;;;;5039240;28;20477;-59
2021/05/28 04:07:04;;;;;;;4.32;2.83;;;;;;;;;;5038973;28;20025;-59
2021/05/28 04:09:34;;;;;;;6.72;3.58;;;;;;;;;;5072245;28;20033;-59
2021/05/28 04:12:00;;;;;;;7.95;3.10;;;;;;;;;;5039610;28;20021;-59
2021/05/28 04:14:29;;;;;;;4.32;3.28;;;;;;;;;;5056868;28;20036;-59
2021/05/28 04:16:55;;;;;;;3.70;2.90;;;;;;;;;;5038651;28;20078;-59
2021/05/28 04:19:28;;;;;;;3.78;3.00;;;;;;;;;;5056747;28;20043;-59
2021/05/28 04:21:54;;;;;;;7.13;3.53;;;;;;;;;;5056744;28;20032;-59
2021/05/28 04:24:20;;;;;;;5.40;3.30;;;;;;;;;;5039366;28;20029;-59
2021/05/28 04:26:46;;;;;;;4.15;3.05;;;;;;;;;;5039574;28;20067;-59
2021/05/28 04:29:18;;;;;;;4.22;2.53;;;;;;;;;;5038619;28;20446;-59
2021/05/28 04:31:46;;;;;;;6.03;3.17;;;;;;;;;;5055929;28;20041;-59
2021/05/28 04:34:12;;;;;;;3.63;3.10;;;;;;;;;;5038576;28;20080;-59
2021/05/28 04:36:39;;;;;;;4.68;3.63;;;;;;;;;;5056766;28;20367;-59
2021/05/28 04:39:05;;;;;;;7.50;3.25;;;;;;;;;;5056340;28;20368;-59
2021/05/28 04:41:31;;;;;;;5.05;3.67;;;;;;;;;;5056432;28;20074;-59
2021/05/28 04:44:00;;;;;;;5.20;3.47;;;;;;;;;;5056862;28;20021;-59
2021/05/28 04:46:27;;;;;;;5.97;3.85;;;;;;;;;;5055843;28;20078;-59
2021/05/28 04:48:53;;;;;;;4.45;3.50;;;;;;;;;;5056795;28;20423;-58
2021/05/28 04:51:21;;;;;;;6.68;4.50;;;;;;;;;;5038357;28;20029;-59
2021/05/28 04:53:48;;;;;;;5.10;4.57;;;;;;;;;;5055799;28;20027;-58
2021/05/28 04:56:15;;;;;;;6.60;4.70;;;;;;;;;;5055493;28;20052;-59
2021/05/28 04:58:44;;;;;;;4.95;4.00;;;;;;;;;;5056079;28;20094;-58
2021/05/28 05:01:10;;;;;;;9.07;5.25;;;;;;;;;;5038397;28;20039;-59
2021/05/28 05:03:36;;;;;;;5.18;4.45;;;;;;;;;;5070958;28;20116;-59
2021/05/28 05:06:02;;;;;;;6.53;4.38;;;;;;;;;;5038424;28;20063;-59
2021/05/28 05:08:30;;;;;;;9.82;4.95;;;;;;;;;;5055982;28;20340;-59
2021/05/28 05:10:57;;;;;;;8.05;5.47;;;;;;;;;;5055758;28;20087;-59
2021/05/28 05:13:28;;;;;;;7.60;4.82;;;;;;;;;;5055757;28;20078;-58
2021/05/28 05:15:55;;;;;;;5.60;4.53;;;;;;;;;;5055761;28;20032;-59
2021/05/28 05:18:21;;;;;;;6.40;4.43;;;;;;;;;;5055604;28;20036;-59
2021/05/28 05:20:47;;;;;;;4.97;4.43;;;;;;;;;;5055501;28;20402;-59
2021/05/28 05:23:13;;;;;;;6.90;5.30;;;;;;;;;;5055382;28;20037;-59
2021/05/28 05:25:39;;;;;;;9.07;4.65;;;;;;;;;;5055465;28;20040;-57
2021/05/28 05:28:08;;;;;;;9.30;5.03;;;;;;;;;;5055216;28;20447;-59
2021/05/28 05:30:39;;;;;;;6.78;4.90;;;;;;;;;;5055396;28;20025;-59
2021/05/28 05:33:05;;;;;;;9.75;5.72;;;;;;;;;;5056230;28;20021;-59
2021/05/28 05:35:34;;;;;;;7.72;5.90;;;;;;;;;;5054987;28;20505;-58
2021/05/28 05:38:08;;;;;;;6.53;5.55;;;;;;;;;;5054884;28;20090;-58
2021/05/28 05:40:40;;;;;;;6.60;4.20;;;;;;;;;;5055818;28;20024;-58
2021/05/28 05:43:09;;;;;;;7.10;6.00;;;;;;;;;;5037840;28;20370;-58
2021/05/28 05:45:35;;;;;;;8.48;5.10;;;;;;;;;;5053957;28;20151;-59
2021/05/28 05:48:07;;;;;;;6.25;5.18;;;;;;;;;;5036510;28;20056;-59
2021/05/28 05:50:33;;;;;;;10.55;6.78;;;;;;;;;;5069490;28;20024;-59
2021/05/28 05:53:02;;;;;;;11.95;5.53;;;;;;;;;;5037411;28;20523;-59
2021/05/28 05:55:28;;;;;;;6.65;5.65;;;;;;;;;;5054825;28;20029;-59
2021/05/28 05:57:56;;;;;;;8.15;5.95;;;;;;;;;;5054873;28;20112;-58
2021/05/28 06:00:23;;;;;;;7.78;6.05;;;;;;;;;;5070335;28;20044;-58
2021/05/28 06:02:49;;;;;;;7.47;5.68;;;;;;;;;;5055301;28;20359;-58
2021/05/28 06:05:18;;;;;;;11.95;6.80;;;;;;;;;;5036550;28;20032;-59
2021/05/28 06:07:44;;;;;;;10.23;5.53;;;;;;;;;;5053680;28;20112;-59
2021/05/28 06:10:11;;;;;;;9.90;5.95;;;;;;;;;;5036776;28;20021;-58
2021/05/28 06:12:38;;;;;;;7.18;6.43;;;;;;;;;;5037216;28;20021;-59
2021/05/28 06:15:04;;;;;;;7.68;6.15;;;;;;;;;;5054093;28;20036;-58
2021/05/28 06:17:33;;;;;;;8.32;7.00;;;;;;;;;;5036867;28;20025;-59
2021/05/28 06:20:01;;;;;;;7.57;5.32;;;;;;;;;;5054314;28;20036;-59
2021/05/28 06:22:27;;;;;;;7.15;5.85;;;;;;;;;;5052975;28;20102;-59
2021/05/28 06:24:59;;;;;;;10.43;6.40;;;;;;;;;;5052723;28;20491;-59
2021/05/28 06:27:25;;;;;;;8.98;5.18;;;;;;;;;;5053991;28;20025;-59
2021/05/28 06:30:02;;;;;;;7.72;6.45;;;;;;;;;;5069444;28;20048;-58
2021/05/28 06:32:31;;;;;;;9.32;5.50;;;;;;;;;;5068383;28;20075;-58
2021/05/28 06:35:00;;;;;;;8.45;5.82;;;;;;;;;;5053844;28;20029;-59
2021/05/28 06:37:26;;;;;;;9.00;6.38;;;;;;;;;;5054130;28;20087;-58
2021/05/28 06:39:52;;;;;;;14.23;6.10;;;;;;;;;;5035952;28;20033;-59
2021/05/28 06:42:18;;;;;;;8.90;6.03;;;;;;;;;;5053858;28;20036;-59
2021/05/28 06:44:45;;;;;;;7.05;5.47;;;;;;;;;;5054116;28;20472;-59
2021/05/28 06:47:13;;;;;;;9.07;5.20;;;;;;;;;;5035811;28;20056;-59
2021/05/28 06:49:43;;;;;;;6.15;5.15;;;;;;;;;;5054254;28;20392;-59
2021/05/28 06:52:12;;;;;;;6.90;5.43;;;;;;;;;;5052129;28;20059;-59
2021/05/28 06:54:38;;;;;;;12.07;6.03;;;;;;;;;;5053966;28;20032;-59
2021/05/28 06:57:04;;;;;;;6.55;5.88;;;;;;;;;;5035734;28;20137;-58
2021/05/28 06:59:31;;;;;;;9.10;6.50;;;;;;;;;;5053892;28;20040;-59
2021/05/28 07:01:57;;;;;;;8.48;5.75;;;;;;;;;;5036213;28;20021;-59
2021/05/28 07:04:23;;;;;;;7.53;5.32;;;;;;;;;;5054037;28;20025;-59
2021/05/28 07:06:50;;;;;;;7.82;5.65;;;;;;;;;;5035677;28;20032;-59
2021/05/28 07:09:16;;;;;;;4.97;4.00;;;;;;;;;;5053837;28;20140;-59
2021/05/28 07:11:42;;;;;;;5.93;4.82;;;;;;;;;;5053708;28;20071;-59
2021/05/28 07:14:08;;;;;;;7.25;5.00;;;;;;;;;;5053397;28;20383;-59
2021/05/28 07:16:34;;;;;;;8.93;6.10;;;;;;;;;;5035921;28;20456;-59
2021/05/28 07:19:01;;;;;;;7.20;5.30;;;;;;;;;;5053425;28;20513;-59
2021/05/28 07:21:27;;;;;;;7.38;5.80;;;;;;;;;;5054188;28;20462;-59
2021/05/28 07:23:54;;;;;;;10.07;6.50;;;;;;;;;;5036344;28;20119;-59
2021/05/28 07:26:20;;;;;;;8.90;5.63;;;;;;;;;;5069526;28;20362;-59
2021/05/28 07:28:46;;;;;;;5.97;5.18;;;;;;;;;;5035679;28;20463;-59
2021/05/28 07:31:13;;;;;;;7.43;5.20;;;;;;;;;;5054123;28;20029;-59
2021/05/28 07:33:39;;;;;;;6.28;5.30;;;;;;;;;;5069178;28;20029;-59
2021/05/28 07:36:08;;;;;;;8.32;6.35;;;;;;;;;;5053313;28;20028;-59
2021/05/28 07:38:34;;;;;;;10.40;5.35;;;;;;;;;;5053030;28;20036;-59
2021/05/28 07:41:00;;;;;;;6.60;5.45;;;;;;;;;;5054503;28;20021;-59
2021/05/28 07:43:26;;;;;;;7.72;5.35;;;;;;;;;;5035225;28;20078;-59
2021/05/28 07:45:52;;;;;;;8.23;5.82;;;;;;;;;;5035763;28;20108;-59
2021/05/28 07:48:18;;;;;;;8.43;5.68;;;;;;;;;;5054102;28;20052;-59
2021/05/28 07:50:45;;;;;;;7.72;5.30;;;;;;;;;;5036308;28;20371;-59
2021/05/28 07:53:22;;;;;;;5.90;5.28;;;;;;;;;;5036338;28;20056;-59
2021/05/28 07:55:48;;;;;;;7.25;5.75;;;;;;;;;;5035239;28;20373;-59
2021/05/28 07:58:16;;;;;;;5.30;4.13;;;;;;;;;;5068900;28;20028;-59
2021/05/28 08:00:46;;;;;;;5.95;5.00;;;;;;;;;;5053614;28;20515;-59
2021/05/28 08:03:15;;;;;;;6.80;5.82;;;;;;;;;;5067477;28;20051;-59
2021/05/28 08:05:42;;;;;;;7.75;6.15;;;;;;;;;;5053427;28;20024;-59
2021/05/28 08:08:10;;;;;;;7.18;6.05;;;;;;;;;;5053040;28;20075;-59
2021/05/28 08:10:36;;;;;;;7.53;5.45;;;;;;;;;;5053031;28;20025;-59
2021/05/28 08:13:02;;;;;;;8.95;6.63;;;;;;;;;;5053536;28;20031;-59
2021/05/28 08:15:31;;;;;;;6.82;5.70;;;;;;;;;;5052882;28;20070;-59
2021/05/28 08:17:59;;;;;;;7.03;5.80;;;;;;;;;;5068087;28;20117;-59
2021/05/28 08:20:25;;;;;;;8.65;5.07;;;;;;;;;;5052747;28;20036;-59
2021/05/28 08:22:53;;;;;;;5.80;4.68;;;;;;;;;;5053320;28;20165;-59
2021/05/28 08:25:19;;;;;;;6.75;5.70;;;;;;;;;;5034657;28;20070;-59
2021/05/28 08:27:45;;;;;;;5.28;4.72;;;;;;;;;;5034529;28;20082;-60
2021/05/28 08:30:13;;;;;;;6.90;4.32;;;;;;;;;;5035053;28;20029;-59
2021/05/28 08:32:42;;;;;;;4.35;3.50;;;;;;;;;;5071290;28;20036;-59
2021/05/28 08:35:08;;;;;;;4.82;4.13;;;;;;;;;;5038391;28;20029;-59
2021/05/28 08:37:34;;;;;;;5.55;4.10;;;;;;;;;;5056964;28;20021;-59
2021/05/28 08:40:00;;;;;;;6.00;3.78;;;;;;;;;;5056434;28;20033;-59
2021/05/28 08:42:28;;;;;;;8.05;4.35;;;;;;;;;;5056741;28;20029;-59
2021/05/28 08:44:55;;;;;;;7.63;4.78;;;;;;;;;;5038578;28;20064;-59
2021/05/28 08:47:21;;;;;;;4.97;3.05;;;;;;;;;;5038290;28;20447;-59
2021/05/28 08:49:51;;;;;;;5.47;3.17;;;;;;;;;;5056100;28;20041;-60
2021/05/28 08:52:17;;;;;;;4.97;3.45;;;;;;;;;;5071712;28;20057;-59
2021/05/28 08:54:43;;;;;;;5.03;3.75;;;;;;;;;;5038260;28;20025;-59
2021/05/28 08:57:10;;;;;;;5.55;4.03;;;;;;;;;;5037973;28;20489;-59
2021/05/28 08:59:36;;;;;;;6.80;4.60;;;;;;;;;;5037994;28;20056;-60
2021/05/28 09:02:02;;;;;;;5.68;4.10;;;;;;;;;;5056374;28;20029;-59
2021/05/28 09:04:28;;;;;;;5.57;5.00;;;;;;;;;;5055865;28;20029;-60
2021/05/28 09:06:54;;;;;;;6.35;4.70;;;;;;;;;;5038265;28;20028;-59
2021/05/28 09:09:27;;;;;;;5.68;4.00;;;;;;;;;;5055689;28;20486;-59
2021/05/28 09:11:57;;;;;;;5.22;3.78;;;;;;;;;;5055815;28;20029;-59
2021/05/28 09:14:29;;;;;;;9.10;4.80;;;;;;;;;;5055995;28;20352;-60
2021/05/28 09:16:55;;;;;;;5.35;4.38;;;;;;;;;;5055718;28;20025;-60
2021/05/28 09:19:24;;;;;;;6.60;4.35;;;;;;;;;;5055634;28;20025;-60
2021/05/28 09:21:58;;;;;;;6.32;4.40;;;;;;;;;;5056210;28;20021;-59
2021/05/28 09:24:35;;;;;;;7.30;3.97;;;;;;;;;;5037699;28;20029;-60
2021/05/28 09:27:22;;;;;;;5.18;3.33;;;;;;;;;;5054732;28;20021;-59
2021/05/28 09:29:58;;;;;;;7.65;4.05;;;;;;;;;;5037458;28;20364;-60
2021/05/28 09:32:25;;;;;;;7.20;3.47;;;;;;;;;;5056522;28;20451;-60
2021/05/28 09:34:51;;;;;;;7.50;5.18;;;;;;;;;;5055412;28;20025;-60
2021/05/28 09:37:17;;;;;;;4.55;3.60;;;;;;;;;;5037732;28;20028;-59
2021/05/28 09:39:43;;;;;;;4.97;4.10;;;;;;;;;;5037409;28;20111;-63
2021/05/28 09:42:12;;;;;;;3.88;3.47;;;;;;;;;;5055245;28;20036;-60
2021/05/28 09:44:38;;;;;;;9.90;4.93;;;;;;;;;;5055137;28;20025;-60
2021/05/28 09:47:04;;;;;;;9.00;3.83;;;;;;;;;;5055351;28;20048;-60
2021/05/28 09:49:33;;;;;;;7.75;3.53;;;;;;;;;;5037015;28;20091;-60
2021/05/28 09:52:14;;;;;;;7.90;4.60;;;;;;;;;;5055125;28;20032;-60
2021/05/28 09:54:59;;;;;;;5.22;3.97;;;;;;;;;;5070401;28;20033;-60
2021/05/28 09:57:28;;;;;;;4.88;4.22;;;;;;;;;;5054622;28;20021;-60
2021/05/28 09:59:54;;;;;;;5.28;4.70;;;;;;;;;;5036688;28;20079;-60
2021/05/28 10:02:28;;;;;;;5.32;3.97;;;;;;;;;;5037622;28;20021;-60
2021/05/28 10:04:55;;;;;;;7.30;4.55;;;;;;;;;;5054931;28;20519;-60
2021/05/28 10:07:21;;;;;;;4.53;3.53;;;;;;;;;;5036957;28;20112;-60
2021/05/28 10:09:47;;;;;;;5.10;3.88;;;;;;;;;;5055126;28;20029;-60
2021/05/28 10:12:14;;;;;;;4.50;3.78;;;;;;;;;;5054630;28;20025;-60
2021/05/28 10:14:40;;;;;;;7.43;3.65;;;;;;;;;;5053224;28;20120;-60
2021/05/28 10:17:06;;;;;;;5.05;3.55;;;;;;;;;;5054460;28;20017;-60
2021/05/28 10:19:33;;;;;;;10.63;4.65;;;;;;;;;;5054335;28;20021;-60
2021/05/28 10:22:02;;;;;;;5.07;4.20;;;;;;;;;;5055233;28;20071;-60
2021/05/28 10:24:30;;;;;;;7.70;4.65;;;;;;;;;;5054417;28;20025;-60
2021/05/28 10:26:56;;;;;;;5.57;4.18;;;;;;;;;;5054457;28;20417;-60
2021/05/28 10:29:26;;;;;;;5.00;3.47;;;;;;;;;;5054211;28;20051;-60
2021/05/28 10:31:59;;;;;;;4.03;2.85;;;;;;;;;;5054592;28;20027;-60
2021/05/28 10:34:26;;;;;;;3.55;3.22;;;;;;;;;;5054305;28;20013;-60
2021/05/28 10:36:52;;;;;;;4.05;2.83;;;;;;;;;;5054571;28;20021;-60
2021/05/28 10:39:19;;;;;;;5.28;3.42;;;;;;;;;;5054223;28;20025;-60
2021/05/28 10:41:45;;;;;;;4.22;3.17;;;;;;;;;;5054429;28;20021;-60
2021/05/28 10:44:13;;;;;;;5.20;4.15;;;;;;;;;;5054531;28;20029;-60
2021/05/28 10:46:51;;;;;;;5.03;3.35;;;;;;;;;;5053921;28;20375;-60
2021/05/28 10:49:17;;;;;;;4.20;3.03;;;;;;;;;;5036185;28;20133;-60
2021/05/28 10:51:43;;;;;;;3.63;2.70;;;;;;;;;;5054016;28;20348;-60
2021/05/28 10:54:09;;;;;;;3.47;3.17;;;;;;;;;;5053553;28;20467;-60
2021/05/28 10:56:38;;;;;;;7.53;3.72;;;;;;;;;;5053551;28;20116;-60
2021/05/28 10:59:16;;;;;;;5.18;3.78;;;;;;;;;;5053534;28;20059;-60
2021/05/28 11:01:42;;;;;;;4.45;3.35;;;;;;;;;;5054558;28;20027;-60
2021/05/28 11:04:12;;;;;;;3.90;3.13;;;;;;;;;;5053676;28;20024;-60
2021/05/28 11:06:57;;;;;;;4.70;3.90;;;;;;;;;;5053762;28;20479;-60
2021/05/28 11:09:41;;;;;;;3.75;2.63;;;;;;;;;;5054065;28;20029;-60
2021/05/28 11:12:07;;;;;;;6.68;3.45;;;;;;;;;;5053890;28;20029;-60
2021/05/28 11:14:35;;;;;;;3.88;2.90;;;;;;;;;;5053900;28;20040;-60
2021/05/28 11:17:04;;;;;;;9.05;2.83;;;;;;;;;;5035765;28;20025;-60
2021/05/28 11:19:32;;;;;;;4.63;2.67;;;;;;;;;;5036095;28;20379;-60
2021/05/28 11:22:03;;;;;;;3.20;2.08;;;;;;;;;;5053306;28;20079;-60
2021/05/28 11:24:41;;;;;;;2.08;1.25;;;;;;;;;;5035556;28;20470;-60
2021/05/28 11:27:13;;;;;;;3.28;1.48;;;;;;;;;;5053866;28;20021;-60
2021/05/28 11:29:39;;;;;;;3.15;2.00;;;;;;;;;;5053371;28;20037;-60
2021/05/28 11:32:24;;;;;;;3.33;2.22;;;;;;;;;;5053978;28;20033;-60
2021/05/28 11:35:08;;;;;;;2.97;1.83;;;;;;;;;;5053347;28;20021;-59
2021/05/28 11:37:38;;;;;;;3.60;2.90;;;;;;;;;;5053274;28;20033;-60
2021/05/28 11:40:14;;;;;;;3.47;2.58;;;;;;;;;;5053921;28;20119;-60
2021/05/28 11:42:41;;;;;;;3.55;2.63;;;;;;;;;;5053395;28;20040;-60
2021/05/28 11:45:08;;;;;;;3.75;2.72;;;;;;;;;;5053666;28;20430;-60
2021/05/28 11:47:35;;;;;;;3.92;2.70;;;;;;;;;;5053405;28;20128;-60
2021/05/28 11:50:03;;;;;;;3.03;2.08;;;;;;;;;;5053382;28;20123;-60
2021/05/28 11:52:29;;;;;;;3.10;2.38;;;;;;;;;;5036038;28;20025;-60
2021/05/28 11:55:05;;;;;;;3.58;2.42;;;;;;;;;;5053246;28;20056;-60
2021/05/28 11:57:31;;;;;;;3.78;2.42;;;;;;;;;;5053775;28;20021;-60
2021/05/28 11:59:58;;;;;;;4.30;3.35;;;;;;;;;;5035663;28;20032;-60
2021/05/28 12:02:33;;;;;;;6.60;2.97;;;;;;;;;;5035942;28;20033;-60
2021/05/28 12:05:00;;;;;;;3.63;2.83;;;;;;;;;;5053340;28;20523;-60
2021/05/28 12:07:30;;;;;;;4.75;3.00;;;;;;;;;;5056808;28;20036;-60
2021/05/28 12:10:07;;;;;;;8.32;2.78;;;;;;;;;;5056863;28;20068;-60
2021/05/28 12:13:09;;;;;;;3.75;2.63;;;;;;;;;;5057250;28;20028;-60
2021/05/28 12:15:36;;;;;;;4.53;2.55;;;;;;;;;;4995475;28;20618;-60
2021/05/28 12:18:28;;;;;;;4.18;2.35;;;;;;;;;;5045298;28;20463;-59
2021/05/28 12:20:54;;;;;;;8.32;3.13;;;;;;;;;;5054265;28;20044;-58
2021/05/28 12:23:21;;;;;;;2.92;2.28;;;;;;;;;;5056618;28;20344;-59
2021/05/28 12:25:49;;;;;;;3.15;2.70;;;;;;;;;;5056603;28;20036;-59
2021/05/28 12:28:18;;;;;;;3.65;2.28;;;;;;;;;;5056161;28;20041;-59
2021/05/28 12:30:45;;;;;;;3.22;2.15;;;;;;;;;;5056137;28;20029;-59
2021/05/28 12:33:11;;;;;;;4.07;2.13;;;;;;;;;;5056529;28;20074;-59
2021/05/28 12:35:38;;;;;;;3.28;2.15;;;;;;;;;;5039311;28;20036;-59
2021/05/28 12:38:09;;;;;;;5.30;1.80;;;;;;;;;;5056379;28;20025;-59
2021/05/28 12:40:35;;;;;;;4.28;1.85;;;;;;;;;;5056778;28;20067;-59
2021/05/28 12:43:02;;;;;;;2.92;1.42;;;;;;;;;;5056309;28;20036;-59
2021/05/28 12:45:39;;;;;;;3.33;1.95;;;;;;;;;;5056252;28;20025;-59
2021/05/28 12:48:05;;;;;;;2.22;1.42;;;;;;;;;;5056424;28;20056;-59
2021/05/28 12:50:33;;;;;;;4.00;1.45;;;;;;;;;;5056226;28;20370;-59
2021/05/28 12:53:00;;;;;;;2.20;1.52;;;;;;;;;;5055760;28;20033;-59
2021/05/28 12:55:27;;;;;;;2.03;1.30;;;;;;;;;;5056524;28;20027;-59
2021/05/28 12:57:53;;;;;;;2.55;1.42;;;;;;;;;;5071390;28;20355;-59
2021/05/28 13:00:30;;;;;;;2.45;1.35;;;;;;;;;;5038176;28;20017;-59
2021/05/28 13:02:56;;;;;;;3.03;1.85;;;;;;;;;;5071772;28;20443;-59
2021/05/28 13:05:31;;;;;;;2.65;1.70;;;;;;;;;;5055821;28;20443;-59
2021/05/28 13:07:57;;;;;;;2.70;1.83;;;;;;;;;;5055555;28;20463;-59
2021/05/28 13:10:24;;;;;;;3.38;1.52;;;;;;;;;;5071234;28;20025;-59
2021/05/28 13:12:50;;;;;;;3.03;1.83;;;;;;;;;;5071830;28;20344;-59
2021/05/28 13:15:25;;;;;;;3.97;1.90;;;;;;;;;;5055752;28;20378;-59
2021/05/28 13:17:55;;;;;;;5.50;2.00;;;;;;;;;;5056082;28;20029;-59
2021/05/28 13:20:23;;;;;;;2.60;1.70;;;;;;;;;;5056062;28;20101;-59
2021/05/28 13:22:50;;;;;;;3.55;1.67;;;;;;;;;;5056020;28;20064;-59
2021/05/28 13:25:27;;;;;;;3.35;1.40;;;;;;;;;;5037689;28;20029;-59
2021/05/28 13:28:02;;;;;;;2.40;1.33;;;;;;;;;;5056024;28;20403;-59
2021/05/28 13:30:37;;;;;;;1.90;1.02;;;;;;;;;;5055406;28;20041;-59
2021/05/28 13:33:14;;;;;;;2.97;1.20;;;;;;;;;;5055436;28;20033;-60
2021/05/28 13:35:40;;;;;;;2.15;1.33;;;;;;;;;;5055440;28;20021;-60
2021/05/28 13:38:06;;;;;;;2.30;1.52;;;;;;;;;;5055340;28;20108;-60
2021/05/28 13:40:32;;;;;;;1.67;1.20;;;;;;;;;;5055388;28;20402;-60
2021/05/28 13:42:58;;;;;;;2.67;1.73;;;;;;;;;;5055282;28;20162;-60
2021/05/28 13:45:24;;;;;;;3.60;2.10;;;;;;;;;;5037970;28;20355;-60
2021/05/28 13:47:50;;;;;;;2.90;1.90;;;;;;;;;;5055844;28;20080;-60
2021/05/28 13:50:16;;;;;;;3.25;1.98;;;;;;;;;;5055657;28;20071;-60
2021/05/28 13:52:42;;;;;;;5.07;2.28;;;;;;;;;;5055556;28;20028;-60
2021/05/28 13:55:08;;;;;;;2.40;1.40;;;;;;;;;;5054956;28;20431;-60
2021/05/28 13:57:34;;;;;;;3.03;1.73;;;;;;;;;;5054711;28;20071;-60
2021/05/28 14:00:00;;;;;;;3.67;2.50;;;;;;;;;;5055483;28;20029;-60
2021/05/28 14:02:27;;;;;;;3.63;2.22;;;;;;;;;;5037420;28;20029;-60
2021/05/28 14:04:52;;;;;;;3.00;2.38;;;;;;;;;;5054531;28;20025;-60
2021/05/28 14:07:18;;;;;;;3.75;2.13;;;;;;;;;;5054704;28;20033;-60
2021/05/28 14:09:44;;;;;;;3.20;2.05;;;;;;;;;;5054847;28;20065;-61
2021/05/28 14:12:11;;;;;;;3.22;1.80;;;;;;;;;;5055487;28;20021;-60
2021/05/28 14:14:39;;;;;;;3.50;2.05;;;;;;;;;;5054597;28;20486;-60
2021/05/28 14:17:05;;;;;;;2.47;1.77;;;;;;;;;;5054464;28;20119;-60
2021/05/28 14:19:32;;;;;;;3.25;1.77;;;;;;;;;;5054413;28;20494;-60
2021/05/28 14:21:58;;;;;;;2.22;1.58;;;;;;;;;;5054531;28;20024;-60
2021/05/28 14:24:24;;;;;;;3.53;1.90;;;;;;;;;;5054508;28;20021;-58
2021/05/28 14:26:50;;;;;;;3.22;1.83;;;;;;;;;;5054478;28;20021;-58
2021/05/28 14:29:16;;;;;;;1.55;0.95;;;;;;;;;;5053655;28;20020;-60
2021/05/28 14:31:42;;;;;;;4.07;1.60;;;;;;;;;;5054353;28;20024;-58
2021/05/28 14:34:08;;;;;;;2.13;1.30;;;;;;;;;;5036427;28;20032;-58
2021/05/28 14:36:35;;;;;;;1.92;1.08;;;;;;;;;;5054238;28;20021;-59
2021/05/28 14:39:03;;;;;;;2.88;1.60;;;;;;;;;;5054258;28;20017;-60
2021/05/28 14:41:30;;;;;;;2.97;1.23;;;;;;;;;;5055092;28;20029;-60
2021/05/28 14:43:56;;;;;;;2.65;1.65;;;;;;;;;;5054122;28;20021;-60
2021/05/28 14:46:22;;;;;;;6.28;1.90;;;;;;;;;;5053854;28;20021;-58
2021/05/28 14:48:48;;;;;;;3.47;1.63;;;;;;;;;;5054519;28;20025;-59
2021/05/28 14:51:15;;;;;;;1.88;1.13;;;;;;;;;;5054538;28;20035;-60